sensor_id;sensor_type;location;lat;lon;timestamp;P1;durP1;ratioP1;P2;durP2;ratioP2
1088;SDS011;533;53.556;9.990;2022-10-16T00:02:27;10.67;;;7.67;;
1088;SDS011;533;53.556;9.990;2022-10-16T00:04:59;9.63;;;7.30;;
1088;SDS011;533;53.556;9.990;2022-10-16T00:07:31;10.53;;;6.50;;
1088;SDS011;533;53.556;9.990;2022-10-16T00:10:02;12.77;;;7.47;;
1088;SDS011;533;53.556;9.990;2022-10-16T00:12:34;8.30;;;6.37;;
1088;SDS011;533;53.556;9.990;2022-10-16T00:15:06;9.73;;;6.63;;
1088;SDS011;533;53.556;9.990;2022-10-16T00:17:39;9.90;;;6.30;;
1088;SDS011;533;53.556;9.990;2022-10-16T00:20:11;6.43;;;5.20;;
1088;SDS011;533;53.556;9.990;2022-10-16T00:23:02;6.83;;;5.17;;
1088;SDS011;533;53.556;9.990;2022-10-16T00:25:35;9.63;;;5.00;;
1088;SDS011;533;53.556;9.990;2022-10-16T00:28:07;6.17;;;4.43;;
1088;SDS011;533;53.556;9.990;2022-10-16T00:30:39;5.83;;;4.33;;
1088;SDS011;533;53.556;9.990;2022-10-16T00:33:11;7.73;;;4.47;;
1088;SDS011;533;53.556;9.990;2022-10-16T00:35:43;4.63;;;3.40;;
1088;SDS011;533;53.556;9.990;2022-10-16T00:38:16;6.37;;;3.83;;
1088;SDS011;533;53.556;9.990;2022-10-16T00:40:48;7.97;;;3.80;;
1088;SDS011;533;53.556;9.990;2022-10-16T00:49:02;10.00;;;3.87;;
1088;SDS011;533;53.556;9.990;2022-10-16T00:51:37;5.90;;;4.20;;
1088;SDS011;533;53.556;9.990;2022-10-16T00:57:03;9.83;;;3.93;;
1088;SDS011;533;53.556;9.990;2022-10-16T00:59:40;4.23;;;3.83;;
1088;SDS011;533;53.556;9.990;2022-10-16T01:02:13;5.50;;;3.37;;
1088;SDS011;533;53.556;9.990;2022-10-16T01:04:50;4.23;;;3.17;;
1088;SDS011;533;53.556;9.990;2022-10-16T01:10:09;10.13;;;3.93;;
1088;SDS011;533;53.556;9.990;2022-10-16T01:35:48;4.83;;;3.30;;
1088;SDS011;533;53.556;9.990;2022-10-16T01:38:29;8.83;;;3.40;;
1088;SDS011;533;53.556;9.990;2022-10-16T01:41:15;3.37;;;2.80;;
1088;SDS011;533;53.556;9.990;2022-10-16T01:44:02;6.10;;;3.53;;
1088;SDS011;533;53.556;9.990;2022-10-16T01:46:36;5.50;;;3.17;;
1088;SDS011;533;53.556;9.990;2022-10-16T01:49:09;8.43;;;3.27;;
1088;SDS011;533;53.556;9.990;2022-10-16T01:51:43;5.23;;;3.60;;
1088;SDS011;533;53.556;9.990;2022-10-16T01:54:16;5.20;;;3.60;;
1088;SDS011;533;53.556;9.990;2022-10-16T01:56:49;6.60;;;3.77;;
1088;SDS011;533;53.556;9.990;2022-10-16T01:59:23;5.50;;;3.10;;
1088;SDS011;533;53.556;9.990;2022-10-16T02:01:59;4.07;;;3.10;;
1088;SDS011;533;53.556;9.990;2022-10-16T02:04:39;5.93;;;3.50;;
1088;SDS011;533;53.556;9.990;2022-10-16T02:07:14;5.63;;;4.20;;
1088;SDS011;533;53.556;9.990;2022-10-16T02:09:46;6.47;;;3.37;;
1088;SDS011;533;53.556;9.990;2022-10-16T02:12:28;5.90;;;4.07;;
1088;SDS011;533;53.556;9.990;2022-10-16T02:15:02;6.73;;;3.30;;
1088;SDS011;533;53.556;9.990;2022-10-16T02:17:34;7.40;;;3.27;;
1088;SDS011;533;53.556;9.990;2022-10-16T02:20:06;4.17;;;3.50;;
1088;SDS011;533;53.556;9.990;2022-10-16T02:22:41;4.77;;;2.97;;
1088;SDS011;533;53.556;9.990;2022-10-16T02:28:04;4.93;;;3.50;;
1088;SDS011;533;53.556;9.990;2022-10-16T02:30:41;6.10;;;3.50;;
1088;SDS011;533;53.556;9.990;2022-10-16T02:33:15;5.30;;;3.47;;
1088;SDS011;533;53.556;9.990;2022-10-16T02:35:48;6.57;;;2.93;;
1088;SDS011;533;53.556;9.990;2022-10-16T02:38:22;5.20;;;2.60;;
1088;SDS011;533;53.556;9.990;2022-10-16T02:40:55;4.07;;;2.63;;
1088;SDS011;533;53.556;9.990;2022-10-16T02:43:27;6.00;;;2.50;;
1088;SDS011;533;53.556;9.990;2022-10-16T02:45:59;3.30;;;2.70;;
1088;SDS011;533;53.556;9.990;2022-10-16T02:48:31;5.50;;;2.97;;
1088;SDS011;533;53.556;9.990;2022-10-16T02:51:04;6.83;;;2.40;;
1088;SDS011;533;53.556;9.990;2022-10-16T02:53:36;5.30;;;2.73;;
1088;SDS011;533;53.556;9.990;2022-10-16T02:56:08;3.13;;;2.53;;
1088;SDS011;533;53.556;9.990;2022-10-16T02:58:40;6.07;;;3.40;;
1088;SDS011;533;53.556;9.990;2022-10-16T03:01:12;6.37;;;2.90;;
1088;SDS011;533;53.556;9.990;2022-10-16T03:03:46;4.77;;;3.20;;
1088;SDS011;533;53.556;9.990;2022-10-16T03:06:17;5.93;;;2.57;;
1088;SDS011;533;53.556;9.990;2022-10-16T03:08:50;7.03;;;3.90;;
1088;SDS011;533;53.556;9.990;2022-10-16T03:11:22;5.47;;;3.10;;
1088;SDS011;533;53.556;9.990;2022-10-16T03:13:54;4.33;;;3.27;;
1088;SDS011;533;53.556;9.990;2022-10-16T03:16:25;3.77;;;2.43;;
1088;SDS011;533;53.556;9.990;2022-10-16T03:18:59;8.13;;;3.03;;
1088;SDS011;533;53.556;9.990;2022-10-16T03:21:31;6.63;;;2.10;;
1088;SDS011;533;53.556;9.990;2022-10-16T03:24:04;6.87;;;4.33;;
1088;SDS011;533;53.556;9.990;2022-10-16T03:26:37;7.20;;;2.10;;
1088;SDS011;533;53.556;9.990;2022-10-16T03:29:09;5.10;;;2.43;;
1088;SDS011;533;53.556;9.990;2022-10-16T03:31:41;4.50;;;2.10;;
1088;SDS011;533;53.556;9.990;2022-10-16T03:34:13;3.53;;;2.00;;
1088;SDS011;533;53.556;9.990;2022-10-16T03:36:45;4.00;;;2.20;;
1088;SDS011;533;53.556;9.990;2022-10-16T03:39:18;5.03;;;2.27;;
1088;SDS011;533;53.556;9.990;2022-10-16T03:41:51;3.67;;;2.33;;
1088;SDS011;533;53.556;9.990;2022-10-16T03:44:23;3.10;;;1.97;;
1088;SDS011;533;53.556;9.990;2022-10-16T03:46:55;3.53;;;2.03;;
1088;SDS011;533;53.556;9.990;2022-10-16T03:49:27;3.73;;;2.27;;
1088;SDS011;533;53.556;9.990;2022-10-16T03:51:59;6.37;;;2.77;;
1088;SDS011;533;53.556;9.990;2022-10-16T03:54:31;6.83;;;2.67;;
1088;SDS011;533;53.556;9.990;2022-10-16T03:57:03;4.30;;;2.83;;
1088;SDS011;533;53.556;9.990;2022-10-16T03:59:35;4.20;;;2.60;;
1088;SDS011;533;53.556;9.990;2022-10-16T04:02:07;3.20;;;2.33;;
1088;SDS011;533;53.556;9.990;2022-10-16T04:04:39;4.83;;;2.60;;
1088;SDS011;533;53.556;9.990;2022-10-16T04:07:13;9.43;;;3.00;;
1088;SDS011;533;53.556;9.990;2022-10-16T04:09:46;5.73;;;2.60;;
1088;SDS011;533;53.556;9.990;2022-10-16T04:12:18;8.43;;;3.10;;
1088;SDS011;533;53.556;9.990;2022-10-16T04:14:50;4.13;;;2.50;;
1088;SDS011;533;53.556;9.990;2022-10-16T04:17:22;4.83;;;2.53;;
1088;SDS011;533;53.556;9.990;2022-10-16T04:19:55;3.33;;;2.60;;
1088;SDS011;533;53.556;9.990;2022-10-16T04:22:27;9.70;;;3.07;;
1088;SDS011;533;53.556;9.990;2022-10-16T04:24:59;4.17;;;3.40;;
1088;SDS011;533;53.556;9.990;2022-10-16T04:27:31;7.53;;;3.30;;
1088;SDS011;533;53.556;9.990;2022-10-16T04:30:03;4.00;;;2.80;;
1088;SDS011;533;53.556;9.990;2022-10-16T04:32:36;6.47;;;3.80;;
1088;SDS011;533;53.556;9.990;2022-10-16T04:35:08;5.93;;;2.60;;
1088;SDS011;533;53.556;9.990;2022-10-16T04:37:40;7.73;;;3.33;;
1088;SDS011;533;53.556;9.990;2022-10-16T04:40:12;3.97;;;2.37;;
1088;SDS011;533;53.556;9.990;2022-10-16T04:42:45;3.53;;;2.47;;
1088;SDS011;533;53.556;9.990;2022-10-16T04:45:16;3.67;;;2.10;;
1088;SDS011;533;53.556;9.990;2022-10-16T04:47:48;8.30;;;2.50;;
1088;SDS011;533;53.556;9.990;2022-10-16T04:50:20;4.73;;;2.63;;
1088;SDS011;533;53.556;9.990;2022-10-16T04:53:08;6.67;;;2.60;;
1088;SDS011;533;53.556;9.990;2022-10-16T04:55:41;4.50;;;2.80;;
1088;SDS011;533;53.556;9.990;2022-10-16T04:58:13;3.50;;;2.60;;
1088;SDS011;533;53.556;9.990;2022-10-16T05:00:45;4.80;;;3.07;;
1088;SDS011;533;53.556;9.990;2022-10-16T05:03:18;8.10;;;2.90;;
1088;SDS011;533;53.556;9.990;2022-10-16T05:05:51;7.83;;;3.57;;
1088;SDS011;533;53.556;9.990;2022-10-16T05:08:23;7.00;;;3.80;;
1088;SDS011;533;53.556;9.990;2022-10-16T05:10:55;7.10;;;3.97;;
1088;SDS011;533;53.556;9.990;2022-10-16T05:13:27;7.30;;;3.90;;
1088;SDS011;533;53.556;9.990;2022-10-16T05:15:59;7.70;;;4.27;;
1088;SDS011;533;53.556;9.990;2022-10-16T05:18:31;7.23;;;3.77;;
1088;SDS011;533;53.556;9.990;2022-10-16T05:21:04;6.67;;;4.03;;
1088;SDS011;533;53.556;9.990;2022-10-16T05:23:38;6.70;;;3.67;;
1088;SDS011;533;53.556;9.990;2022-10-16T05:26:10;4.37;;;3.13;;
1088;SDS011;533;53.556;9.990;2022-10-16T05:28:42;9.13;;;3.40;;
1088;SDS011;533;53.556;9.990;2022-10-16T05:31:14;7.30;;;4.03;;
1088;SDS011;533;53.556;9.990;2022-10-16T05:33:47;4.43;;;2.90;;
1088;SDS011;533;53.556;9.990;2022-10-16T05:36:23;4.27;;;3.40;;
1088;SDS011;533;53.556;9.990;2022-10-16T05:38:56;7.77;;;3.60;;
1088;SDS011;533;53.556;9.990;2022-10-16T05:41:27;4.40;;;2.80;;
1088;SDS011;533;53.556;9.990;2022-10-16T05:43:59;6.07;;;3.87;;
1088;SDS011;533;53.556;9.990;2022-10-16T05:46:32;6.17;;;3.27;;
1088;SDS011;533;53.556;9.990;2022-10-16T05:49:04;12.80;;;4.73;;
1088;SDS011;533;53.556;9.990;2022-10-16T05:51:36;6.13;;;4.53;;
1088;SDS011;533;53.556;9.990;2022-10-16T05:54:09;3.97;;;2.87;;
1088;SDS011;533;53.556;9.990;2022-10-16T05:56:41;4.63;;;2.80;;
1088;SDS011;533;53.556;9.990;2022-10-16T05:59:13;5.10;;;3.83;;
1088;SDS011;533;53.556;9.990;2022-10-16T06:01:45;8.30;;;3.50;;
1088;SDS011;533;53.556;9.990;2022-10-16T06:04:17;6.97;;;4.03;;
1088;SDS011;533;53.556;9.990;2022-10-16T06:06:49;5.53;;;3.13;;
1088;SDS011;533;53.556;9.990;2022-10-16T06:09:21;5.03;;;3.47;;
1088;SDS011;533;53.556;9.990;2022-10-16T06:11:54;5.60;;;3.47;;
1088;SDS011;533;53.556;9.990;2022-10-16T06:14:26;4.90;;;3.23;;
1088;SDS011;533;53.556;9.990;2022-10-16T06:16:58;4.97;;;3.50;;
1088;SDS011;533;53.556;9.990;2022-10-16T06:19:30;4.37;;;2.80;;
1088;SDS011;533;53.556;9.990;2022-10-16T06:22:04;5.20;;;3.47;;
1088;SDS011;533;53.556;9.990;2022-10-16T06:24:36;4.83;;;2.77;;
1088;SDS011;533;53.556;9.990;2022-10-16T06:27:07;10.07;;;3.77;;
1088;SDS011;533;53.556;9.990;2022-10-16T06:29:39;5.37;;;3.50;;
1088;SDS011;533;53.556;9.990;2022-10-16T06:32:12;5.10;;;3.33;;
1088;SDS011;533;53.556;9.990;2022-10-16T06:34:44;5.43;;;3.30;;
1088;SDS011;533;53.556;9.990;2022-10-16T06:37:17;5.10;;;3.53;;
1088;SDS011;533;53.556;9.990;2022-10-16T06:39:49;7.07;;;3.60;;
1088;SDS011;533;53.556;9.990;2022-10-16T06:42:20;4.47;;;3.50;;
1088;SDS011;533;53.556;9.990;2022-10-16T06:44:52;6.13;;;3.47;;
1088;SDS011;533;53.556;9.990;2022-10-16T06:47:24;6.97;;;4.77;;
1088;SDS011;533;53.556;9.990;2022-10-16T06:49:56;7.03;;;3.97;;
1088;SDS011;533;53.556;9.990;2022-10-16T06:52:29;9.37;;;4.30;;
1088;SDS011;533;53.556;9.990;2022-10-16T06:55:01;6.43;;;4.00;;
1088;SDS011;533;53.556;9.990;2022-10-16T06:57:34;7.77;;;4.50;;
1088;SDS011;533;53.556;9.990;2022-10-16T07:00:06;5.40;;;3.57;;
1088;SDS011;533;53.556;9.990;2022-10-16T07:02:39;6.40;;;4.33;;
1088;SDS011;533;53.556;9.990;2022-10-16T07:05:11;7.10;;;4.93;;
1088;SDS011;533;53.556;9.990;2022-10-16T07:07:43;5.50;;;3.93;;
1088;SDS011;533;53.556;9.990;2022-10-16T07:10:15;12.13;;;4.20;;
1088;SDS011;533;53.556;9.990;2022-10-16T07:12:48;7.40;;;4.10;;
1088;SDS011;533;53.556;9.990;2022-10-16T07:15:20;6.63;;;4.40;;
1088;SDS011;533;53.556;9.990;2022-10-16T07:17:52;6.73;;;5.13;;
1088;SDS011;533;53.556;9.990;2022-10-16T07:20:24;9.80;;;4.80;;
1088;SDS011;533;53.556;9.990;2022-10-16T07:22:56;5.90;;;4.33;;
1088;SDS011;533;53.556;9.990;2022-10-16T07:25:28;8.20;;;4.57;;
1088;SDS011;533;53.556;9.990;2022-10-16T07:28:00;6.33;;;4.50;;
1088;SDS011;533;53.556;9.990;2022-10-16T07:30:34;6.53;;;3.87;;
1088;SDS011;533;53.556;9.990;2022-10-16T07:33:06;6.37;;;3.57;;
1088;SDS011;533;53.556;9.990;2022-10-16T07:35:47;10.30;;;4.87;;
1088;SDS011;533;53.556;9.990;2022-10-16T07:38:22;5.43;;;3.93;;
1088;SDS011;533;53.556;9.990;2022-10-16T07:40:59;7.13;;;4.07;;
1088;SDS011;533;53.556;9.990;2022-10-16T07:43:34;6.07;;;4.23;;
1088;SDS011;533;53.556;9.990;2022-10-16T07:46:06;6.23;;;4.40;;
1088;SDS011;533;53.556;9.990;2022-10-16T07:48:38;6.77;;;4.60;;
1088;SDS011;533;53.556;9.990;2022-10-16T07:51:11;7.80;;;4.70;;
1088;SDS011;533;53.556;9.990;2022-10-16T07:53:44;4.23;;;3.80;;
1088;SDS011;533;53.556;9.990;2022-10-16T07:56:16;5.03;;;4.00;;
1088;SDS011;533;53.556;9.990;2022-10-16T07:58:49;5.57;;;3.73;;
1088;SDS011;533;53.556;9.990;2022-10-16T08:01:22;5.47;;;4.13;;
1088;SDS011;533;53.556;9.990;2022-10-16T08:03:55;13.10;;;4.63;;
1088;SDS011;533;53.556;9.990;2022-10-16T08:06:27;6.07;;;3.97;;
1088;SDS011;533;53.556;9.990;2022-10-16T08:08:59;4.73;;;3.53;;
1088;SDS011;533;53.556;9.990;2022-10-16T08:11:32;7.33;;;4.00;;
1088;SDS011;533;53.556;9.990;2022-10-16T08:14:04;7.43;;;4.03;;
1088;SDS011;533;53.556;9.990;2022-10-16T08:16:36;5.27;;;3.87;;
1088;SDS011;533;53.556;9.990;2022-10-16T08:19:08;5.87;;;3.77;;
1088;SDS011;533;53.556;9.990;2022-10-16T08:21:40;5.40;;;3.90;;
1088;SDS011;533;53.556;9.990;2022-10-16T08:24:12;6.80;;;3.60;;
1088;SDS011;533;53.556;9.990;2022-10-16T08:26:45;10.30;;;3.53;;
1088;SDS011;533;53.556;9.990;2022-10-16T08:29:18;4.23;;;3.83;;
1088;SDS011;533;53.556;9.990;2022-10-16T08:31:50;7.77;;;3.60;;
1088;SDS011;533;53.556;9.990;2022-10-16T08:34:22;7.43;;;4.40;;
1088;SDS011;533;53.556;9.990;2022-10-16T08:36:53;5.00;;;4.17;;
1088;SDS011;533;53.556;9.990;2022-10-16T08:39:26;4.10;;;3.70;;
1088;SDS011;533;53.556;9.990;2022-10-16T08:47:25;8.47;;;4.10;;
1088;SDS011;533;53.556;9.990;2022-10-16T08:49:59;5.70;;;3.97;;
1088;SDS011;533;53.556;9.990;2022-10-16T08:52:35;4.57;;;3.83;;
1088;SDS011;533;53.556;9.990;2022-10-16T08:55:20;5.30;;;3.50;;
1088;SDS011;533;53.556;9.990;2022-10-16T08:58:00;10.47;;;4.20;;
1088;SDS011;533;53.556;9.990;2022-10-16T09:00:32;7.93;;;4.10;;
1088;SDS011;533;53.556;9.990;2022-10-16T09:05:49;6.37;;;3.50;;
1088;SDS011;533;53.556;9.990;2022-10-16T09:13:54;7.70;;;4.20;;
1088;SDS011;533;53.556;9.990;2022-10-16T09:16:33;5.50;;;3.50;;
1088;SDS011;533;53.556;9.990;2022-10-16T09:22:04;6.50;;;3.50;;
1088;SDS011;533;53.556;9.990;2022-10-16T09:24:43;7.20;;;3.23;;
1088;SDS011;533;53.556;9.990;2022-10-16T09:27:15;5.30;;;3.40;;
1088;SDS011;533;53.556;9.990;2022-10-16T09:29:47;10.60;;;4.07;;
1088;SDS011;533;53.556;9.990;2022-10-16T09:32:19;6.20;;;3.57;;
1088;SDS011;533;53.556;9.990;2022-10-16T09:34:53;3.30;;;2.67;;
1088;SDS011;533;53.556;9.990;2022-10-16T09:37:27;3.03;;;2.50;;
1088;SDS011;533;53.556;9.990;2022-10-16T09:40:00;5.30;;;2.30;;
1088;SDS011;533;53.556;9.990;2022-10-16T09:42:38;4.07;;;2.83;;
1088;SDS011;533;53.556;9.990;2022-10-16T09:45:19;4.87;;;2.90;;
1088;SDS011;533;53.556;9.990;2022-10-16T09:47:52;5.90;;;2.40;;
1088;SDS011;533;53.556;9.990;2022-10-16T09:50:28;5.50;;;2.90;;
1088;SDS011;533;53.556;9.990;2022-10-16T09:53:35;5.03;;;3.20;;
1088;SDS011;533;53.556;9.990;2022-10-16T09:56:25;7.23;;;2.87;;
1088;SDS011;533;53.556;9.990;2022-10-16T09:59:17;5.50;;;2.90;;
1088;SDS011;533;53.556;9.990;2022-10-16T10:01:51;3.70;;;2.10;;
1088;SDS011;533;53.556;9.990;2022-10-16T10:04:24;5.80;;;2.83;;
1088;SDS011;533;53.556;9.990;2022-10-16T10:06:57;5.13;;;2.40;;
1088;SDS011;533;53.556;9.990;2022-10-16T10:09:38;6.43;;;3.10;;
1088;SDS011;533;53.556;9.990;2022-10-16T10:12:16;7.20;;;2.43;;
1088;SDS011;533;53.556;9.990;2022-10-16T10:14:56;3.80;;;2.70;;
1088;SDS011;533;53.556;9.990;2022-10-16T10:17:30;3.10;;;2.13;;
1088;SDS011;533;53.556;9.990;2022-10-16T10:22:54;6.27;;;3.03;;
1088;SDS011;533;53.556;9.990;2022-10-16T10:28:16;5.10;;;2.37;;
1088;SDS011;533;53.556;9.990;2022-10-16T10:31:00;5.83;;;2.70;;
1088;SDS011;533;53.556;9.990;2022-10-16T10:36:34;6.27;;;2.87;;
1088;SDS011;533;53.556;9.990;2022-10-16T10:39:23;6.70;;;2.50;;
1088;SDS011;533;53.556;9.990;2022-10-16T10:42:03;4.30;;;2.47;;
1088;SDS011;533;53.556;9.990;2022-10-16T10:47:38;4.73;;;2.70;;
1088;SDS011;533;53.556;9.990;2022-10-16T10:50:39;6.60;;;1.90;;
1088;SDS011;533;53.556;9.990;2022-10-16T10:53:18;8.80;;;2.03;;
1088;SDS011;533;53.556;9.990;2022-10-16T10:56:00;4.30;;;1.60;;
1088;SDS011;533;53.556;9.990;2022-10-16T11:01:14;2.37;;;1.63;;
1088;SDS011;533;53.556;9.990;2022-10-16T11:06:55;2.50;;;1.40;;
1088;SDS011;533;53.556;9.990;2022-10-16T11:09:34;6.90;;;2.33;;
1088;SDS011;533;53.556;9.990;2022-10-16T11:14:58;4.43;;;2.10;;
1088;SDS011;533;53.556;9.990;2022-10-16T11:17:39;4.80;;;1.73;;
1088;SDS011;533;53.556;9.990;2022-10-16T11:20:16;8.00;;;2.47;;
1088;SDS011;533;53.556;9.990;2022-10-16T11:22:51;6.07;;;2.10;;
1088;SDS011;533;53.556;9.990;2022-10-16T11:30:41;3.50;;;1.60;;
1088;SDS011;533;53.556;9.990;2022-10-16T11:33:37;6.53;;;2.00;;
1088;SDS011;533;53.556;9.990;2022-10-16T11:36:33;4.50;;;1.70;;
1088;SDS011;533;53.556;9.990;2022-10-16T11:39:18;5.77;;;2.17;;
1088;SDS011;533;53.556;9.990;2022-10-16T11:41:52;2.90;;;1.30;;
1088;SDS011;533;53.556;9.990;2022-10-16T11:44:48;4.80;;;2.10;;
1088;SDS011;533;53.556;9.990;2022-10-16T11:47:40;10.20;;;1.90;;
1088;SDS011;533;53.556;9.990;2022-10-16T11:50:38;8.53;;;1.90;;
1088;SDS011;533;53.556;9.990;2022-10-16T11:56:12;5.47;;;1.83;;
1088;SDS011;533;53.556;9.990;2022-10-16T11:58:59;3.87;;;1.40;;
1088;SDS011;533;53.556;9.990;2022-10-16T12:01:42;8.67;;;2.30;;
1088;SDS011;533;53.556;9.990;2022-10-16T12:04:18;5.10;;;1.50;;
1088;SDS011;533;53.556;9.990;2022-10-16T12:06:58;8.43;;;1.90;;
1088;SDS011;533;53.556;9.990;2022-10-16T12:09:34;4.73;;;1.70;;
1088;SDS011;533;53.556;9.990;2022-10-16T12:12:28;3.50;;;1.80;;
1088;SDS011;533;53.556;9.990;2022-10-16T12:15:29;6.80;;;1.70;;
1088;SDS011;533;53.556;9.990;2022-10-16T12:18:23;4.87;;;2.33;;
1088;SDS011;533;53.556;9.990;2022-10-16T12:20:56;7.03;;;1.90;;
1088;SDS011;533;53.556;9.990;2022-10-16T12:23:38;7.70;;;1.80;;
1088;SDS011;533;53.556;9.990;2022-10-16T12:26:27;8.87;;;2.20;;
1088;SDS011;533;53.556;9.990;2022-10-16T12:29:14;8.50;;;2.83;;
1088;SDS011;533;53.556;9.990;2022-10-16T12:32:21;8.83;;;1.97;;
1088;SDS011;533;53.556;9.990;2022-10-16T12:35:19;7.73;;;2.37;;
1088;SDS011;533;53.556;9.990;2022-10-16T12:37:52;3.60;;;1.80;;
1088;SDS011;533;53.556;9.990;2022-10-16T12:40:28;8.20;;;2.17;;
1088;SDS011;533;53.556;9.990;2022-10-16T12:46:01;5.20;;;1.93;;
1088;SDS011;533;53.556;9.990;2022-10-16T12:48:36;4.40;;;1.60;;
1088;SDS011;533;53.556;9.990;2022-10-16T12:56:47;4.50;;;1.90;;
1088;SDS011;533;53.556;9.990;2022-10-16T13:08:23;6.50;;;3.00;;
1088;SDS011;533;53.556;9.990;2022-10-16T13:20:01;9.00;;;3.93;;
1088;SDS011;533;53.556;9.990;2022-10-16T13:23:00;5.23;;;2.00;;
1088;SDS011;533;53.556;9.990;2022-10-16T13:26:09;6.27;;;1.87;;
1088;SDS011;533;53.556;9.990;2022-10-16T13:28:47;5.07;;;2.03;;
1088;SDS011;533;53.556;9.990;2022-10-16T13:31:20;5.60;;;1.50;;
1088;SDS011;533;53.556;9.990;2022-10-16T13:33:56;9.43;;;2.77;;
1088;SDS011;533;53.556;9.990;2022-10-16T13:36:34;4.70;;;1.93;;
1088;SDS011;533;53.556;9.990;2022-10-16T13:39:23;3.27;;;1.67;;
1088;SDS011;533;53.556;9.990;2022-10-16T13:42:11;8.07;;;2.20;;
1088;SDS011;533;53.556;9.990;2022-10-16T13:44:46;6.67;;;2.93;;
1088;SDS011;533;53.556;9.990;2022-10-16T13:47:27;5.23;;;2.23;;
1088;SDS011;533;53.556;9.990;2022-10-16T13:50:05;6.30;;;2.30;;
1088;SDS011;533;53.556;9.990;2022-10-16T13:52:41;6.40;;;2.80;;
1088;SDS011;533;53.556;9.990;2022-10-16T13:55:14;4.63;;;1.77;;
1088;SDS011;533;53.556;9.990;2022-10-16T13:57:48;5.63;;;2.00;;
1088;SDS011;533;53.556;9.990;2022-10-16T14:00:21;8.20;;;1.60;;
1088;SDS011;533;53.556;9.990;2022-10-16T14:03:06;4.80;;;1.63;;
1088;SDS011;533;53.556;9.990;2022-10-16T14:05:47;4.23;;;2.00;;
1088;SDS011;533;53.556;9.990;2022-10-16T14:08:22;5.03;;;2.27;;
1088;SDS011;533;53.556;9.990;2022-10-16T14:10:56;6.20;;;1.87;;
1088;SDS011;533;53.556;9.990;2022-10-16T14:13:47;7.10;;;1.97;;
1088;SDS011;533;53.556;9.990;2022-10-16T14:16:26;5.00;;;2.17;;
1088;SDS011;533;53.556;9.990;2022-10-16T14:19:00;3.10;;;1.90;;
1088;SDS011;533;53.556;9.990;2022-10-16T14:21:33;9.47;;;2.10;;
1088;SDS011;533;53.556;9.990;2022-10-16T14:27:20;2.53;;;1.70;;
1088;SDS011;533;53.556;9.990;2022-10-16T14:35:38;9.10;;;3.57;;
1088;SDS011;533;53.556;9.990;2022-10-16T14:38:18;4.27;;;2.40;;
1088;SDS011;533;53.556;9.990;2022-10-16T14:40:51;4.20;;;2.13;;
1088;SDS011;533;53.556;9.990;2022-10-16T14:43:29;6.50;;;2.60;;
1088;SDS011;533;53.556;9.990;2022-10-16T14:46:17;2.87;;;2.03;;
1088;SDS011;533;53.556;9.990;2022-10-16T14:49:13;3.70;;;1.93;;
1088;SDS011;533;53.556;9.990;2022-10-16T14:51:48;4.47;;;1.63;;
1088;SDS011;533;53.556;9.990;2022-10-16T14:54:20;7.10;;;2.40;;
1088;SDS011;533;53.556;9.990;2022-10-16T14:56:56;6.40;;;2.60;;
1088;SDS011;533;53.556;9.990;2022-10-16T14:59:35;4.37;;;2.13;;
1088;SDS011;533;53.556;9.990;2022-10-16T15:05:11;8.20;;;2.63;;
1088;SDS011;533;53.556;9.990;2022-10-16T15:07:44;5.10;;;2.20;;
1088;SDS011;533;53.556;9.990;2022-10-16T15:10:17;4.57;;;1.83;;
1088;SDS011;533;53.556;9.990;2022-10-16T15:12:49;7.30;;;2.23;;
1088;SDS011;533;53.556;9.990;2022-10-16T15:15:37;5.03;;;2.00;;
1088;SDS011;533;53.556;9.990;2022-10-16T15:18:14;9.30;;;2.10;;
1088;SDS011;533;53.556;9.990;2022-10-16T15:20:51;5.97;;;2.37;;
1088;SDS011;533;53.556;9.990;2022-10-16T15:23:23;6.70;;;2.47;;
1088;SDS011;533;53.556;9.990;2022-10-16T15:25:56;6.03;;;2.07;;
1088;SDS011;533;53.556;9.990;2022-10-16T15:28:28;6.00;;;2.40;;
1088;SDS011;533;53.556;9.990;2022-10-16T15:31:00;6.70;;;2.60;;
1088;SDS011;533;53.556;9.990;2022-10-16T15:33:32;7.60;;;2.00;;
1088;SDS011;533;53.556;9.990;2022-10-16T15:36:10;8.57;;;2.63;;
1088;SDS011;533;53.556;9.990;2022-10-16T15:38:42;7.53;;;2.93;;
1088;SDS011;533;53.556;9.990;2022-10-16T15:41:15;7.30;;;2.17;;
1088;SDS011;533;53.556;9.990;2022-10-16T15:43:48;6.90;;;2.43;;
1088;SDS011;533;53.556;9.990;2022-10-16T15:46:21;7.97;;;3.47;;
1088;SDS011;533;53.556;9.990;2022-10-16T15:48:55;6.10;;;2.70;;
1088;SDS011;533;53.556;9.990;2022-10-16T15:51:29;6.30;;;2.60;;
1088;SDS011;533;53.556;9.990;2022-10-16T15:54:01;5.30;;;2.47;;
1088;SDS011;533;53.556;9.990;2022-10-16T15:56:33;10.17;;;2.63;;
1088;SDS011;533;53.556;9.990;2022-10-16T15:59:05;5.77;;;2.47;;
1088;SDS011;533;53.556;9.990;2022-10-16T16:01:38;8.17;;;2.40;;
1088;SDS011;533;53.556;9.990;2022-10-16T16:04:11;7.27;;;2.10;;
1088;SDS011;533;53.556;9.990;2022-10-16T16:07:03;8.23;;;2.70;;
1088;SDS011;533;53.556;9.990;2022-10-16T16:09:38;11.50;;;4.23;;
1088;SDS011;533;53.556;9.990;2022-10-16T16:12:10;6.67;;;3.23;;
1088;SDS011;533;53.556;9.990;2022-10-16T16:14:42;11.00;;;3.57;;
1088;SDS011;533;53.556;9.990;2022-10-16T16:17:17;10.40;;;3.20;;
1088;SDS011;533;53.556;9.990;2022-10-16T16:19:50;6.10;;;2.50;;
1088;SDS011;533;53.556;9.990;2022-10-16T16:22:22;11.77;;;2.93;;
1088;SDS011;533;53.556;9.990;2022-10-16T16:24:54;8.23;;;3.53;;
1088;SDS011;533;53.556;9.990;2022-10-16T16:27:26;6.90;;;3.20;;
1088;SDS011;533;53.556;9.990;2022-10-16T16:30:01;7.27;;;3.80;;
1088;SDS011;533;53.556;9.990;2022-10-16T16:32:35;6.23;;;3.20;;
1088;SDS011;533;53.556;9.990;2022-10-16T16:35:07;9.90;;;5.33;;
1088;SDS011;533;53.556;9.990;2022-10-16T16:37:39;7.37;;;3.80;;
1088;SDS011;533;53.556;9.990;2022-10-16T16:40:11;8.50;;;3.37;;
1088;SDS011;533;53.556;9.990;2022-10-16T16:42:43;7.30;;;3.07;;
1088;SDS011;533;53.556;9.990;2022-10-16T16:45:14;5.53;;;3.00;;
1088;SDS011;533;53.556;9.990;2022-10-16T16:47:47;7.60;;;3.70;;
1088;SDS011;533;53.556;9.990;2022-10-16T16:50:19;10.70;;;5.60;;
1088;SDS011;533;53.556;9.990;2022-10-16T16:52:51;10.70;;;3.80;;
1088;SDS011;533;53.556;9.990;2022-10-16T16:55:23;7.33;;;4.50;;
1088;SDS011;533;53.556;9.990;2022-10-16T16:57:55;11.50;;;4.17;;
1088;SDS011;533;53.556;9.990;2022-10-16T17:00:28;7.30;;;4.17;;
1088;SDS011;533;53.556;9.990;2022-10-16T17:03:00;14.43;;;4.73;;
1088;SDS011;533;53.556;9.990;2022-10-16T17:05:32;10.87;;;4.93;;
1088;SDS011;533;53.556;9.990;2022-10-16T17:08:06;8.43;;;4.97;;
1088;SDS011;533;53.556;9.990;2022-10-16T17:10:43;8.70;;;4.90;;
1088;SDS011;533;53.556;9.990;2022-10-16T17:13:16;9.47;;;4.60;;
1088;SDS011;533;53.556;9.990;2022-10-16T17:15:48;7.53;;;5.00;;
1088;SDS011;533;53.556;9.990;2022-10-16T17:18:22;10.53;;;5.30;;
1088;SDS011;533;53.556;9.990;2022-10-16T17:20:56;11.93;;;5.33;;
1088;SDS011;533;53.556;9.990;2022-10-16T17:23:30;9.33;;;5.63;;
1088;SDS011;533;53.556;9.990;2022-10-16T17:26:04;10.60;;;5.40;;
1088;SDS011;533;53.556;9.990;2022-10-16T17:28:36;6.93;;;5.73;;
1088;SDS011;533;53.556;9.990;2022-10-16T17:33:47;17.57;;;7.03;;
1088;SDS011;533;53.556;9.990;2022-10-16T17:36:19;11.53;;;7.57;;
1088;SDS011;533;53.556;9.990;2022-10-16T17:38:52;20.37;;;11.00;;
1088;SDS011;533;53.556;9.990;2022-10-16T17:41:24;19.00;;;11.73;;
1088;SDS011;533;53.556;9.990;2022-10-16T17:43:56;20.40;;;9.70;;
1088;SDS011;533;53.556;9.990;2022-10-16T17:46:28;15.70;;;9.10;;
1088;SDS011;533;53.556;9.990;2022-10-16T17:49:00;11.37;;;7.10;;
1088;SDS011;533;53.556;9.990;2022-10-16T17:51:32;9.83;;;6.37;;
1088;SDS011;533;53.556;9.990;2022-10-16T17:54:05;10.90;;;6.17;;
1088;SDS011;533;53.556;9.990;2022-10-16T17:56:37;11.80;;;5.40;;
1088;SDS011;533;53.556;9.990;2022-10-16T17:59:09;8.30;;;6.03;;
1088;SDS011;533;53.556;9.990;2022-10-16T18:01:42;7.40;;;5.77;;
1088;SDS011;533;53.556;9.990;2022-10-16T18:04:17;10.30;;;4.80;;
1088;SDS011;533;53.556;9.990;2022-10-16T18:06:49;11.87;;;5.37;;
1088;SDS011;533;53.556;9.990;2022-10-16T18:09:21;10.53;;;5.00;;
1088;SDS011;533;53.556;9.990;2022-10-16T18:11:53;11.03;;;5.47;;
1088;SDS011;533;53.556;9.990;2022-10-16T18:14:31;7.93;;;5.90;;
1088;SDS011;533;53.556;9.990;2022-10-16T18:17:03;12.93;;;5.00;;
1088;SDS011;533;53.556;9.990;2022-10-16T18:19:35;11.70;;;5.10;;
1088;SDS011;533;53.556;9.990;2022-10-16T18:22:07;7.03;;;4.40;;